createdAt,value
2023-03-02T00:01:09.363Z,1.29
2023-03-02T00:03:59.132Z,1.28
2023-03-02T00:06:45.851Z,1.26
2023-03-02T00:09:32.917Z,1.22
2023-03-02T00:12:19.430Z,1.23
2023-03-02T00:15:06.818Z,1.20
2023-03-02T00:17:53.661Z,1.19
2023-03-02T00:20:40.059Z,1.14
2023-03-02T00:23:27.653Z,1.11
2023-03-02T00:26:14.098Z,1.05
2023-03-02T00:29:00.848Z,1.03
2023-03-02T00:31:47.685Z,0.97
2023-03-02T00:34:34.143Z,0.91
2023-03-02T00:37:21.155Z,0.85
2023-03-02T00:40:12.009Z,0.80
2023-03-02T00:42:58.490Z,0.73
2023-03-02T00:45:45.472Z,0.72
2023-03-02T00:48:32.099Z,0.70
2023-03-02T00:51:19.436Z,0.67
2023-03-02T00:54:06.670Z,0.65
2023-03-02T00:56:53.192Z,0.63
2023-03-02T00:59:39.930Z,0.60
2023-03-02T01:02:27.235Z,0.58
2023-03-02T01:05:15.563Z,0.54
2023-03-02T01:08:01.907Z,0.48
2023-03-02T01:10:48.446Z,0.45
2023-03-02T01:13:36.404Z,0.44
2023-03-02T01:16:22.891Z,0.39
2023-03-02T01:19:09.652Z,0.33
2023-03-02T01:21:55.954Z,0.33
2023-03-02T01:24:42.765Z,0.32
2023-03-02T01:27:29.598Z,0.30
2023-03-02T01:30:17.370Z,0.27
2023-03-02T01:33:03.863Z,0.25
2023-03-02T01:35:50.469Z,0.23
2023-03-02T01:38:37.148Z,0.28
2023-03-02T01:41:23.930Z,0.27
2023-03-02T01:44:48.644Z,0.39
2023-03-02T01:47:38.767Z,0.56
2023-03-02T01:50:26.738Z,0.78
2023-03-02T01:53:15.845Z,0.91
2023-03-02T01:56:04.163Z,1.04
2023-03-02T01:58:56.471Z,1.15
2023-03-02T02:01:47.428Z,1.28
2023-03-02T02:04:37.928Z,1.40
2023-03-02T02:07:24.565Z,1.47
2023-03-02T02:10:12.302Z,1.58
2023-03-02T02:12:58.892Z,1.68
2023-03-02T02:15:45.369Z,1.69
2023-03-02T02:18:34.176Z,1.68
2023-03-02T02:21:22.752Z,1.64
2023-03-02T02:24:22.305Z,1.69
2023-03-02T02:27:10.656Z,1.74
2023-03-02T02:29:58.579Z,1.79
2023-03-02T02:32:48.572Z,1.81
2023-03-02T02:35:38.694Z,1.82
2023-03-02T02:38:25.801Z,1.88
2023-03-02T02:41:20.136Z,1.86
2023-03-02T02:44:07.120Z,1.87
2023-03-02T02:46:53.530Z,1.90
2023-03-02T02:49:41.914Z,1.95
2023-03-02T02:52:29.713Z,2.01
2023-03-02T02:55:21.488Z,2.06
2023-03-02T02:58:20.513Z,2.11
2023-03-02T03:01:07.529Z,2.12
2023-03-02T03:03:57.995Z,2.12
2023-03-02T03:07:13.610Z,2.08
2023-03-02T03:10:35.009Z,2.03
2023-03-02T03:13:21.584Z,2.08
2023-03-02T03:16:11.415Z,2.08
2023-03-02T03:19:05.578Z,2.11
2023-03-02T03:21:56.075Z,2.19
2023-03-02T03:24:44.467Z,2.22
2023-03-02T03:27:30.905Z,2.24
2023-03-02T03:30:18.236Z,2.20
2023-03-02T03:33:05.041Z,2.11
2023-03-02T03:35:51.624Z,2.12
2023-03-02T03:38:39.366Z,2.19
2023-03-02T03:41:26.589Z,2.20
2023-03-02T03:44:13.488Z,2.21
2023-03-02T03:47:00.642Z,2.23
2023-03-02T03:49:47.088Z,2.23
2023-03-02T03:52:33.909Z,2.26
2023-03-02T03:55:20.774Z,2.28
2023-03-02T03:58:07.607Z,2.28
2023-03-02T04:00:54.085Z,2.23
2023-03-02T04:03:40.704Z,2.25
2023-03-02T04:06:27.684Z,2.27
2023-03-02T04:09:15.570Z,2.24
2023-03-02T04:12:03.902Z,2.24
2023-03-02T04:14:50.413Z,2.26
2023-03-02T04:17:37.084Z,2.26
2023-03-02T04:20:27.567Z,2.28
2023-03-02T04:23:14.979Z,2.27
2023-03-02T04:26:05.124Z,2.30
2023-03-02T04:28:51.840Z,2.28
2023-03-02T04:31:39.190Z,2.26
2023-03-02T04:34:26.630Z,2.31
2023-03-02T04:37:13.471Z,2.39
2023-03-02T04:40:00.412Z,2.44
2023-03-02T04:42:47.424Z,2.45
2023-03-02T04:45:34.363Z,2.49
2023-03-02T04:48:22.504Z,2.46
2023-03-02T04:51:24.132Z,2.47
2023-03-02T04:54:21.718Z,2.43
2023-03-02T04:57:08.643Z,2.43
2023-03-02T04:59:54.955Z,2.47
2023-03-02T05:02:41.877Z,2.53
2023-03-02T05:05:29.613Z,2.54
2023-03-02T05:08:17.041Z,2.48
2023-03-02T05:11:04.489Z,2.44
2023-03-02T05:13:53.632Z,2.41
2023-03-02T05:16:41.745Z,2.36
2023-03-02T05:19:28.603Z,2.34
2023-03-02T05:22:15.335Z,2.41
2023-03-02T05:25:02.214Z,2.42
2023-03-02T05:27:49.533Z,2.38
2023-03-02T05:30:37.713Z,2.40
2023-03-02T05:33:25.463Z,2.44
2023-03-02T05:36:12.248Z,2.48
2023-03-02T05:38:58.828Z,2.56
2023-03-02T05:41:46.419Z,2.60
2023-03-02T05:44:33.185Z,2.56
2023-03-02T05:47:20.392Z,2.53
2023-03-02T05:50:07.602Z,2.56
2023-03-02T05:52:54.360Z,2.55
2023-03-02T05:55:42.019Z,2.55
2023-03-02T05:58:28.928Z,2.58
2023-03-02T06:01:15.799Z,2.55
2023-03-02T06:04:02.872Z,2.53
2023-03-02T06:06:49.581Z,2.54
2023-03-02T06:09:37.147Z,2.57
2023-03-02T06:12:24.373Z,2.62
2023-03-02T06:15:11.479Z,2.67
2023-03-02T06:17:58.172Z,2.69
2023-03-02T06:20:45.189Z,2.72
2023-03-02T06:23:31.572Z,2.74
2023-03-02T06:26:18.092Z,2.78
2023-03-02T06:29:05.683Z,2.75
2023-03-02T06:31:52.336Z,2.73
2023-03-02T06:34:38.844Z,2.73
2023-03-02T06:37:25.742Z,2.79
2023-03-02T06:40:14.098Z,2.77
2023-03-02T06:43:03.867Z,2.81
2023-03-02T06:45:51.122Z,2.81
2023-03-02T06:48:38.261Z,2.83
2023-03-02T06:51:24.667Z,2.86
2023-03-02T06:54:11.563Z,2.88
2023-03-02T06:56:58.332Z,2.85
2023-03-02T06:59:45.033Z,2.87
2023-03-02T07:02:31.897Z,2.93
2023-03-02T07:05:19.549Z,2.95
2023-03-02T07:08:05.951Z,2.94
2023-03-02T07:10:52.657Z,2.96
2023-03-02T07:13:40.338Z,2.98
2023-03-02T07:16:27.720Z,3.01
2023-03-02T07:19:20.648Z,3.04
2023-03-02T07:22:10.478Z,3.05
2023-03-02T07:24:57.268Z,3.09
2023-03-02T07:32:07.078Z,2.85
2023-03-02T07:34:54.314Z,2.96
2023-03-02T07:37:44.201Z,3.06
2023-03-02T07:40:30.629Z,3.11
2023-03-02T07:43:17.678Z,3.13
2023-03-02T07:46:05.079Z,3.17
2023-03-02T07:48:52.005Z,3.13
2023-03-02T07:51:39.184Z,3.08
2023-03-02T07:54:27.803Z,3.14
2023-03-02T07:57:54.431Z,3.27
2023-03-02T08:00:42.684Z,3.33
2023-03-02T08:03:30.148Z,3.43
2023-03-02T08:06:19.840Z,3.42
2023-03-02T08:09:06.313Z,3.48
2023-03-02T08:11:52.797Z,3.61
2023-03-02T08:16:06.798Z,3.65
2023-03-02T08:19:41.893Z,3.52
2023-03-02T08:33:43.149Z,3.83
2023-03-02T09:14:43.845Z,4.79
2023-03-02T09:17:42.737Z,4.48
2023-03-02T09:22:11.529Z,4.46
2023-03-02T09:50:23.396Z,5.12
2023-03-02T09:58:32.398Z,4.98
2023-03-02T10:01:28.691Z,4.97
2023-03-02T10:17:22.691Z,5.11
2023-03-02T11:00:32.043Z,4.89
2023-03-02T11:55:47.817Z,5.29
2023-03-02T12:23:24.291Z,6.54
2023-03-02T12:26:18.956Z,6.46
2023-03-02T12:29:10.658Z,6.41
2023-03-02T12:31:57.238Z,6.39
2023-03-02T12:34:51.290Z,6.50
2023-03-02T12:37:57.641Z,6.39
2023-03-02T12:52:00.641Z,6.53
2023-03-02T12:55:22.399Z,6.44
2023-03-02T12:58:17.914Z,6.37
2023-03-02T13:01:04.578Z,6.36
2023-03-02T13:10:55.063Z,6.11
2023-03-02T13:13:45.321Z,5.99
2023-03-02T13:16:36.893Z,6.03
2023-03-02T13:19:27.720Z,6.11
2023-03-02T13:22:15.116Z,6.17
2023-03-02T13:25:06.268Z,6.11
2023-03-02T13:28:07.995Z,6.01
2023-03-02T13:31:07.702Z,5.75
2023-03-02T13:33:57.221Z,5.74
2023-03-02T13:36:53.817Z,5.84
2023-03-02T13:41:19.428Z,5.90
2023-03-02T13:44:34.300Z,5.88
2023-03-02T13:47:35.996Z,5.95
2023-03-02T14:02:25.960Z,6.09
2023-03-02T15:11:05.685Z,5.96
2023-03-02T15:14:44.698Z,5.64
2023-03-02T15:17:29.932Z,5.41
2023-03-02T15:20:34.601Z,5.46
2023-03-02T15:24:33.693Z,5.38
2023-03-02T15:28:56.167Z,5.29
2023-03-02T15:37:22.012Z,4.97
2023-03-02T15:40:08.147Z,4.93
2023-03-02T15:42:55.916Z,5.01
2023-03-02T15:45:45.879Z,5.00
2023-03-02T15:48:31.038Z,4.92
2023-03-02T15:52:36.529Z,4.86
2023-03-02T15:55:22.106Z,4.58
2023-03-02T15:58:10.956Z,4.50
2023-03-02T16:00:56.417Z,4.39
2023-03-02T16:04:02.106Z,4.23
2023-03-02T16:07:47.645Z,4.07
2023-03-02T16:11:10.368Z,3.81
2023-03-02T16:14:07.261Z,3.66
2023-03-02T16:17:19.531Z,3.52
2023-03-02T16:20:12.292Z,3.28
2023-03-02T16:23:04.054Z,3.24
2023-03-02T16:25:52.834Z,3.12
2023-03-02T16:28:39.774Z,2.99
2023-03-02T16:31:28.533Z,2.86
2023-03-02T16:34:37.265Z,2.74
2023-03-02T16:37:24.399Z,2.55
2023-03-02T16:40:17.124Z,2.51
2023-03-02T16:43:03.626Z,2.39
2023-03-02T16:45:51.799Z,2.29
2023-03-02T16:48:38.620Z,2.18
2023-03-02T16:51:38.622Z,2.02
2023-03-02T16:55:52.785Z,1.79
2023-03-02T17:13:19.840Z,1.43
2023-03-02T17:16:05.823Z,1.23
2023-03-02T17:24:57.658Z,0.98
2023-03-02T17:27:56.688Z,0.82
2023-03-02T17:43:04.279Z,0.86
2023-03-02T17:47:14.636Z,0.61
2023-03-02T17:50:11.318Z,0.37
2023-03-02T17:54:07.551Z,0.27
2023-03-02T17:58:05.286Z,0.20
2023-03-02T18:02:10.422Z,0.18
2023-03-02T18:05:41.536Z,0.06
2023-03-02T18:08:28.028Z,0.01
2023-03-02T18:11:17.566Z,0.14
2023-03-02T18:14:04.399Z,0.26
2023-03-02T18:16:51.213Z,0.33
2023-03-02T18:19:38.158Z,0.35
2023-03-02T18:22:25.409Z,0.33
2023-03-02T18:25:13.056Z,0.29
2023-03-02T18:29:52.482Z,0.21
2023-03-02T18:33:26.945Z,-0.03
2023-03-02T18:37:35.121Z,-0.15
2023-03-02T18:41:05.273Z,-0.26
2023-03-02T18:45:18.212Z,-0.33
2023-03-02T18:48:54.740Z,-0.42
2023-03-02T18:51:45.591Z,-0.45
2023-03-02T18:54:32.638Z,-0.32
2023-03-02T18:57:19.733Z,-0.26
2023-03-02T19:00:10.017Z,-0.30
2023-03-02T19:03:01.741Z,-0.28
2023-03-02T19:05:49.514Z,-0.21
2023-03-02T19:08:37.204Z,-0.16
2023-03-02T19:11:24.121Z,-0.12
2023-03-02T19:14:11.217Z,-0.11
2023-03-02T19:16:58.381Z,-0.10
2023-03-02T19:19:49.001Z,-0.12
2023-03-02T19:22:35.447Z,-0.14
2023-03-02T19:25:22.655Z,-0.15
2023-03-02T19:28:09.821Z,-0.16
2023-03-02T19:30:58.617Z,-0.18
2023-03-02T19:33:48.736Z,-0.21
2023-03-02T19:36:37.614Z,-0.24
2023-03-02T19:39:24.248Z,-0.28
2023-03-02T19:42:11.486Z,-0.31
2023-03-02T19:44:58.211Z,-0.34
2023-03-02T19:47:45.979Z,-0.33
2023-03-02T19:50:45.927Z,-0.35
2023-03-02T19:53:43.080Z,-0.39
2023-03-02T20:00:49.734Z,-0.53
2023-03-02T20:09:41.435Z,-0.74
2023-03-02T20:17:14.057Z,-1.10
2023-03-02T20:20:07.326Z,-0.98
2023-03-02T20:23:25.452Z,-0.92
2023-03-02T20:26:29.543Z,-0.92
2023-03-02T20:29:28.394Z,-0.88
2023-03-02T20:32:16.358Z,-0.84
2023-03-02T20:35:08.132Z,-0.81
2023-03-02T20:38:00.998Z,-0.82
2023-03-02T20:41:11.075Z,-0.87
2023-03-02T20:43:56.685Z,-0.86
2023-03-02T20:47:19.694Z,-0.87
2023-03-02T20:54:25.301Z,-1.06
2023-03-02T20:56:49.715Z,-0.99
2023-03-02T20:57:17.536Z,-1.10
2023-03-02T21:00:39.476Z,-1.09
2023-03-02T21:03:31.723Z,-1.09
2023-03-02T21:06:25.094Z,-1.08
2023-03-02T21:09:14.511Z,-1.10
2023-03-02T21:12:01.944Z,-1.10
2023-03-02T21:14:48.909Z,-1.12
2023-03-02T21:17:35.962Z,-1.13
2023-03-02T21:20:26.373Z,-1.12
2023-03-02T21:26:35.921Z,-1.13
2023-03-02T21:29:26.137Z,-1.16
2023-03-02T21:32:11.256Z,-1.15
2023-03-02T21:34:56.357Z,-1.14
2023-03-02T21:37:45.047Z,-1.16
2023-03-02T21:40:37.047Z,-1.21
2023-03-02T21:43:37.116Z,-1.22
2023-03-02T21:46:24.439Z,-1.20
2023-03-02T21:49:15.660Z,-1.18
2023-03-02T21:52:01.232Z,-1.23
2023-03-02T21:54:56.259Z,-1.24
2023-03-02T21:58:09.437Z,-1.27
2023-03-02T22:00:55.560Z,-1.26
2023-03-02T22:03:42.015Z,-1.23
2023-03-02T22:06:32.280Z,-1.15
2023-03-02T22:09:23.563Z,-1.13
2023-03-02T22:12:13.477Z,-1.09
2023-03-02T22:15:05.643Z,-1.09
2023-03-02T22:17:52.472Z,-1.08
2023-03-02T22:20:50.886Z,-1.07
2023-03-02T22:23:37.899Z,-1.11
2023-03-02T22:26:25.484Z,-1.09
2023-03-02T22:29:34.113Z,-1.02
2023-03-02T22:32:34.111Z,-1.05
2023-03-02T22:35:22.646Z,-1.09
2023-03-02T22:38:16.190Z,-1.12
2023-03-02T22:41:02.407Z,-1.17
2023-03-02T22:43:49.018Z,-1.19
2023-03-02T22:46:34.398Z,-1.20
2023-03-02T22:49:22.784Z,-1.25
2023-03-02T22:52:19.651Z,-1.28
2023-03-02T22:55:30.813Z,-1.26
2023-03-02T22:58:22.226Z,-1.30
2023-03-02T23:01:25.727Z,-1.32
2023-03-02T23:04:25.860Z,-1.33
2023-03-02T23:07:38.204Z,-1.35
2023-03-02T23:10:23.859Z,-1.36
2023-03-02T23:13:13.636Z,-1.33
2023-03-02T23:16:02.171Z,-1.33
2023-03-02T23:18:48.426Z,-1.34
2023-03-02T23:21:47.739Z,-1.36
2023-03-02T23:24:33.783Z,-1.27
2023-03-02T23:27:19.229Z,-1.21
2023-03-02T23:30:05.464Z,-1.08
2023-03-02T23:34:40.292Z,-0.91
2023-03-02T23:37:28.657Z,-1.02
2023-03-02T23:40:17.722Z,-0.97
2023-03-02T23:43:04.500Z,-0.95
2023-03-02T23:45:51.452Z,-0.91
2023-03-02T23:48:38.340Z,-0.96
2023-03-02T23:51:27.271Z,-1.03
2023-03-02T23:54:14.755Z,-1.10
2023-03-02T23:57:01.669Z,-1.14
2023-03-02T23:59:48.173Z,-1.16
